sensor_id;sensor_type;location;lat;lon;timestamp;pressure;altitude;pressure_sealevel;temperature;humidity
58927;BME280;44712;52.530;9.760;2022-07-09T00:01:03;102111.72;;;14.70;89.02
58927;BME280;44712;52.530;9.760;2022-07-09T00:03:30;102108.13;;;14.65;89.30
58927;BME280;44712;52.530;9.760;2022-07-09T00:05:57;102115.41;;;14.63;89.67
58927;BME280;44712;52.530;9.760;2022-07-09T00:08:23;102114.47;;;14.61;90.05
58927;BME280;44712;52.530;9.760;2022-07-09T00:10:50;102107.25;;;14.57;90.18
58927;BME280;44712;52.530;9.760;2022-07-09T00:13:17;102101.84;;;14.51;90.34
58927;BME280;44712;52.530;9.760;2022-07-09T00:15:43;102108.22;;;14.48;90.66
58927;BME280;44712;52.530;9.760;2022-07-09T00:18:11;102111.84;;;14.50;91.28
58927;BME280;44712;52.530;9.760;2022-07-09T00:20:37;102110.94;;;14.50;91.50
58927;BME280;44712;52.530;9.760;2022-07-09T00:23:04;102113.69;;;14.47;91.59
58927;BME280;44712;52.530;9.760;2022-07-09T00:25:32;102104.63;;;14.45;91.73
58927;BME280;44712;52.530;9.760;2022-07-09T00:27:59;102103.75;;;14.39;91.33
58927;BME280;44712;52.530;9.760;2022-07-09T00:30:26;102097.41;;;14.37;91.54
58927;BME280;44712;52.530;9.760;2022-07-09T00:32:52;102106.50;;;14.35;91.97
58927;BME280;44712;52.530;9.760;2022-07-09T00:35:19;102098.34;;;14.33;92.31
58927;BME280;44712;52.530;9.760;2022-07-09T00:37:46;102097.44;;;14.34;92.55
58927;BME280;44712;52.530;9.760;2022-07-09T00:40:12;102104.72;;;14.34;92.26
58927;BME280;44712;52.530;9.760;2022-07-09T00:42:39;102094.72;;;14.33;92.19
58927;BME280;44712;52.530;9.760;2022-07-09T00:45:06;102091.97;;;14.34;92.25
58927;BME280;44712;52.530;9.760;2022-07-09T00:47:33;102101.97;;;14.32;92.43
58927;BME280;44712;52.530;9.760;2022-07-09T00:50:00;102108.34;;;14.31;92.34
58927;BME280;44712;52.530;9.760;2022-07-09T00:52:27;102110.19;;;14.28;92.31
58927;BME280;44712;52.530;9.760;2022-07-09T00:54:59;102100.22;;;14.25;92.42
58927;BME280;44712;52.530;9.760;2022-07-09T00:57:28;102103.84;;;14.27;92.67
58927;BME280;44712;52.530;9.760;2022-07-09T00:59:57;102098.38;;;14.30;92.86
58927;BME280;44712;52.530;9.760;2022-07-09T01:02:24;102097.47;;;14.31;93.08
58927;BME280;44712;52.530;9.760;2022-07-09T01:04:51;102088.38;;;14.31;93.09
58927;BME280;44712;52.530;9.760;2022-07-09T01:07:18;102088.38;;;14.34;93.91
58927;BME280;44712;52.530;9.760;2022-07-09T01:09:47;102092.88;;;14.33;93.69
58927;BME280;44712;52.530;9.760;2022-07-09T01:12:13;102093.78;;;14.32;93.54
58927;BME280;44712;52.530;9.760;2022-07-09T01:14:40;102089.25;;;14.36;94.07
58927;BME280;44712;52.530;9.760;2022-07-09T01:17:07;102081.06;;;14.37;94.28
58927;BME280;44712;52.530;9.760;2022-07-09T01:19:34;102069.22;;;14.42;94.40
58927;BME280;44712;52.530;9.760;2022-07-09T01:22:02;102071.97;;;14.38;93.81
58927;BME280;44712;52.530;9.760;2022-07-09T01:24:32;102072.91;;;14.34;93.69
58927;BME280;44712;52.530;9.760;2022-07-09T01:26:59;102070.19;;;14.36;94.26
58927;BME280;44712;52.530;9.760;2022-07-09T01:29:26;102068.38;;;14.35;94.16
58927;BME280;44712;52.530;9.760;2022-07-09T01:31:56;102062.03;;;14.34;94.16
58927;BME280;44712;52.530;9.760;2022-07-09T01:34:23;102058.41;;;14.32;94.08
58927;BME280;44712;52.530;9.760;2022-07-09T01:36:49;102059.31;;;14.33;94.20
58927;BME280;44712;52.530;9.760;2022-07-09T01:39:17;102054.78;;;14.30;94.36
58927;BME280;44712;52.530;9.760;2022-07-09T01:41:44;102054.78;;;14.30;94.42
58927;BME280;44712;52.530;9.760;2022-07-09T01:44:11;102047.53;;;14.29;94.25
58927;BME280;44712;52.530;9.760;2022-07-09T01:46:37;102047.56;;;14.26;94.32
58927;BME280;44712;52.530;9.760;2022-07-09T01:49:04;102043.94;;;14.24;94.22
58927;BME280;44712;52.530;9.760;2022-07-09T01:51:33;102043.03;;;14.25;94.50
58927;BME280;44712;52.530;9.760;2022-07-09T01:54:01;102043.00;;;14.27;94.22
58927;BME280;44712;52.530;9.760;2022-07-09T01:56:27;102040.31;;;14.25;94.11
58927;BME280;44712;52.530;9.760;2022-07-09T01:58:54;102042.16;;;14.20;94.51
58927;BME280;44712;52.530;9.760;2022-07-09T02:01:21;102031.28;;;14.17;94.24
58927;BME280;44712;52.530;9.760;2022-07-09T02:03:47;102034.97;;;14.13;94.29
58927;BME280;44712;52.530;9.760;2022-07-09T02:06:14;102024.09;;;14.10;94.29
58927;BME280;44712;52.530;9.760;2022-07-09T02:08:41;102021.41;;;14.05;94.81
58927;BME280;44712;52.530;9.760;2022-07-09T02:11:08;102025.97;;;13.98;95.55
58927;BME280;44712;52.530;9.760;2022-07-09T02:13:34;102028.72;;;13.97;95.99
58927;BME280;44712;52.530;9.760;2022-07-09T02:16:01;102022.38;;;13.98;95.91
58927;BME280;44712;52.530;9.760;2022-07-09T02:18:28;102023.22;;;14.01;95.66
58927;BME280;44712;52.530;9.760;2022-07-09T02:20:55;102026.88;;;13.99;95.97
58927;BME280;44712;52.530;9.760;2022-07-09T02:23:22;102036.88;;;13.98;95.68
58927;BME280;44712;52.530;9.760;2022-07-09T02:25:50;102027.78;;;13.96;96.08
58927;BME280;44712;52.530;9.760;2022-07-09T02:28:16;102026.00;;;13.95;96.23
58927;BME280;44712;52.530;9.760;2022-07-09T02:30:43;102029.63;;;13.94;96.33
58927;BME280;44712;52.530;9.760;2022-07-09T02:33:10;102027.81;;;13.93;96.19
58927;BME280;44712;52.530;9.760;2022-07-09T02:35:36;102019.69;;;13.90;96.24
58927;BME280;44712;52.530;9.760;2022-07-09T02:38:03;102019.69;;;13.90;96.40
58927;BME280;44712;52.530;9.760;2022-07-09T02:40:30;102026.00;;;13.92;96.45
58927;BME280;44712;52.530;9.760;2022-07-09T02:42:56;102036.00;;;13.90;96.45
58927;BME280;44712;52.530;9.760;2022-07-09T02:45:23;102019.72;;;13.87;96.72
58927;BME280;44712;52.530;9.760;2022-07-09T02:47:50;102020.59;;;13.89;96.90
58927;BME280;44712;52.530;9.760;2022-07-09T02:50:16;102016.97;;;13.88;97.43
58927;BME280;44712;52.530;9.760;2022-07-09T02:52:43;102020.56;;;13.90;97.51
58927;BME280;44712;52.530;9.760;2022-07-09T02:55:10;102014.25;;;13.90;97.38
58927;BME280;44712;52.530;9.760;2022-07-09T02:57:36;102022.38;;;13.93;97.66
58927;BME280;44712;52.530;9.760;2022-07-09T03:00:04;102016.91;;;13.96;97.62
58927;BME280;44712;52.530;9.760;2022-07-09T03:02:30;102017.84;;;13.95;97.85
58927;BME280;44712;52.530;9.760;2022-07-09T03:04:58;102017.84;;;13.95;98.31
58927;BME280;44712;52.530;9.760;2022-07-09T03:07:24;102010.59;;;13.94;98.35
58927;BME280;44712;52.530;9.760;2022-07-09T03:09:51;102010.56;;;13.96;98.28
58927;BME280;44712;52.530;9.760;2022-07-09T03:12:18;102011.47;;;13.96;98.18
58927;BME280;44712;52.530;9.760;2022-07-09T03:14:44;102009.69;;;13.95;98.86
58927;BME280;44712;52.530;9.760;2022-07-09T03:17:11;102008.75;;;13.96;98.91
58927;BME280;44712;52.530;9.760;2022-07-09T03:19:38;102002.38;;;13.97;98.72
58927;BME280;44712;52.530;9.760;2022-07-09T03:22:04;102000.59;;;13.93;99.44
58927;BME280;44712;52.530;9.760;2022-07-09T03:24:31;102004.22;;;13.95;99.46
58927;BME280;44712;52.530;9.760;2022-07-09T03:26:58;102009.66;;;13.98;99.37
58927;BME280;44712;52.530;9.760;2022-07-09T03:29:25;102005.09;;;13.97;99.76
58927;BME280;44712;52.530;9.760;2022-07-09T03:31:51;102002.38;;;13.97;99.45
58927;BME280;44712;52.530;9.760;2022-07-09T03:34:20;101996.97;;;13.94;100.00
58927;BME280;44712;52.530;9.760;2022-07-09T03:36:47;101996.06;;;13.95;100.00
58927;BME280;44712;52.530;9.760;2022-07-09T03:39:14;101999.66;;;13.97;100.00
58927;BME280;44712;52.530;9.760;2022-07-09T03:41:41;102000.56;;;13.99;100.00
58927;BME280;44712;52.530;9.760;2022-07-09T03:44:08;101998.72;;;14.01;100.00
58927;BME280;44712;52.530;9.760;2022-07-09T03:46:34;102004.13;;;14.07;100.00
58927;BME280;44712;52.530;9.760;2022-07-09T03:49:01;101991.44;;;14.10;100.00
58927;BME280;44712;52.530;9.760;2022-07-09T03:51:28;101991.41;;;14.13;100.00
58927;BME280;44712;52.530;9.760;2022-07-09T03:53:55;101988.63;;;14.16;100.00
58927;BME280;44712;52.530;9.760;2022-07-09T03:56:21;101984.09;;;14.18;100.00
58927;BME280;44712;52.530;9.760;2022-07-09T03:58:48;101990.41;;;14.20;100.00
58927;BME280;44712;52.530;9.760;2022-07-09T04:01:15;101993.13;;;14.21;100.00
58927;BME280;44712;52.530;9.760;2022-07-09T04:03:42;101993.13;;;14.23;100.00
58927;BME280;44712;52.530;9.760;2022-07-09T04:06:08;101991.31;;;14.23;100.00
58927;BME280;44712;52.530;9.760;2022-07-09T04:08:35;101994.91;;;14.24;100.00
58927;BME280;44712;52.530;9.760;2022-07-09T04:11:03;101994.91;;;14.24;100.00
58927;BME280;44712;52.530;9.760;2022-07-09T04:13:30;101990.41;;;14.23;100.00
58927;BME280;44712;52.530;9.760;2022-07-09T04:15:57;101993.13;;;14.25;100.00
58927;BME280;44712;52.530;9.760;2022-07-09T04:18:23;101983.13;;;14.25;100.00
58927;BME280;44712;52.530;9.760;2022-07-09T04:20:50;101972.19;;;14.28;100.00
58927;BME280;44712;52.530;9.760;2022-07-09T04:23:17;101974.91;;;14.31;100.00
58927;BME280;44712;52.530;9.760;2022-07-09T04:25:44;101971.25;;;14.32;100.00
58927;BME280;44712;52.530;9.760;2022-07-09T04:28:11;101976.69;;;14.32;100.00
58927;BME280;44712;52.530;9.760;2022-07-09T04:30:38;101977.59;;;14.36;100.00
58927;BME280;44712;52.530;9.760;2022-07-09T04:33:06;101965.72;;;14.42;100.00
58927;BME280;44712;52.530;9.760;2022-07-09T04:35:33;101977.53;;;14.42;100.00
58927;BME280;44712;52.530;9.760;2022-07-09T04:38:02;101976.59;;;14.45;100.00
58927;BME280;44712;52.530;9.760;2022-07-09T04:40:29;101963.91;;;14.44;100.00
58927;BME280;44712;52.530;9.760;2022-07-09T04:43:00;101958.44;;;14.44;100.00
58927;BME280;44712;52.530;9.760;2022-07-09T04:45:26;101973.84;;;14.48;100.00
58927;BME280;44712;52.530;9.760;2022-07-09T04:47:57;101980.16;;;14.53;100.00
58927;BME280;44712;52.530;9.760;2022-07-09T04:50:25;101973.78;;;14.55;100.00
58927;BME280;44712;52.530;9.760;2022-07-09T04:52:51;101974.66;;;14.59;100.00
58927;BME280;44712;52.530;9.760;2022-07-09T04:55:19;101972.81;;;14.61;100.00
58927;BME280;44712;52.530;9.760;2022-07-09T04:57:45;101968.28;;;14.63;100.00
58927;BME280;44712;52.530;9.760;2022-07-09T05:00:13;101970.97;;;14.66;100.00
58927;BME280;44712;52.530;9.760;2022-07-09T05:02:44;101974.56;;;14.71;100.00
58927;BME280;44712;52.530;9.760;2022-07-09T05:05:11;101970.84;;;14.79;100.00
58927;BME280;44712;52.530;9.760;2022-07-09T05:07:40;101968.97;;;14.84;100.00
58927;BME280;44712;52.530;9.760;2022-07-09T05:10:08;101960.72;;;14.90;100.00
58927;BME280;44712;52.530;9.760;2022-07-09T05:12:35;101972.44;;;14.98;100.00
58927;BME280;44712;52.530;9.760;2022-07-09T05:15:03;101972.34;;;15.07;100.00
58927;BME280;44712;52.530;9.760;2022-07-09T05:17:40;101986.72;;;15.19;100.00
58927;BME280;44712;52.530;9.760;2022-07-09T05:20:08;101986.59;;;15.31;100.00
58927;BME280;44712;52.530;9.760;2022-07-09T05:22:36;101978.38;;;15.33;100.00
58927;BME280;44712;52.530;9.760;2022-07-09T05:25:05;101974.63;;;15.40;100.00
58927;BME280;44712;52.530;9.760;2022-07-09T05:27:32;101975.47;;;15.47;100.00
58927;BME280;44712;52.530;9.760;2022-07-09T05:30:12;101971.75;;;15.51;100.00
58927;BME280;44712;52.530;9.760;2022-07-09T05:32:46;101959.84;;;15.58;100.00
58927;BME280;44712;52.530;9.760;2022-07-09T05:35:13;101967.84;;;15.70;100.00
58927;BME280;44712;52.530;9.760;2022-07-09T05:37:41;101976.88;;;15.76;100.00
58927;BME280;44712;52.530;9.760;2022-07-09T05:40:09;101970.44;;;15.81;100.00
58927;BME280;44712;52.530;9.760;2022-07-09T05:42:36;101974.91;;;15.87;100.00
58927;BME280;44712;52.530;9.760;2022-07-09T05:45:03;101973.75;;;16.03;99.56
58927;BME280;44712;52.530;9.760;2022-07-09T05:47:30;101976.38;;;16.10;99.56
58927;BME280;44712;52.530;9.760;2022-07-09T05:49:57;101977.13;;;16.21;98.87
58927;BME280;44712;52.530;9.760;2022-07-09T05:52:25;101968.81;;;16.26;97.39
58927;BME280;44712;52.530;9.760;2022-07-09T05:54:52;101968.88;;;16.22;97.22
58927;BME280;44712;52.530;9.760;2022-07-09T05:57:18;101963.31;;;16.27;97.15
58927;BME280;44712;52.530;9.760;2022-07-09T05:59:45;101966.78;;;16.38;96.19
58927;BME280;44712;52.530;9.760;2022-07-09T06:02:12;101971.16;;;16.47;96.01
58927;BME280;44712;52.530;9.760;2022-07-09T06:04:39;101969.22;;;16.54;95.87
58927;BME280;44712;52.530;9.760;2022-07-09T06:07:06;101970.19;;;16.53;95.36
58927;BME280;44712;52.530;9.760;2022-07-09T06:09:32;101961.78;;;16.64;94.19
58927;BME280;44712;52.530;9.760;2022-07-09T06:11:59;101966.25;;;16.68;93.70
58927;BME280;44712;52.530;9.760;2022-07-09T06:14:25;101974.28;;;16.77;93.04
58927;BME280;44712;52.530;9.760;2022-07-09T06:16:53;101968.66;;;16.85;92.63
58927;BME280;44712;52.530;9.760;2022-07-09T06:19:22;101980.47;;;16.87;91.43
58927;BME280;44712;52.530;9.760;2022-07-09T06:21:49;101964.06;;;16.87;90.95
58927;BME280;44712;52.530;9.760;2022-07-09T06:24:15;101954.81;;;16.94;91.30
58927;BME280;44712;52.530;9.760;2022-07-09T06:26:42;101952.91;;;16.99;90.80
58927;BME280;44712;52.530;9.760;2022-07-09T06:29:09;101950.09;;;17.04;90.54
58927;BME280;44712;52.530;9.760;2022-07-09T06:31:36;101967.22;;;17.12;89.71
58927;BME280;44712;52.530;9.760;2022-07-09T06:34:02;101959.88;;;17.16;89.57
58927;BME280;44712;52.530;9.760;2022-07-09T06:36:29;101952.50;;;17.18;90.08
58927;BME280;44712;52.530;9.760;2022-07-09T06:38:56;101965.19;;;17.22;89.84
58927;BME280;44712;52.530;9.760;2022-07-09T06:41:41;101950.59;;;17.23;89.84
58927;BME280;44712;52.530;9.760;2022-07-09T06:44:08;101957.72;;;17.30;89.96
58927;BME280;44712;52.530;9.760;2022-07-09T06:46:34;101953.94;;;17.37;89.58
58927;BME280;44712;52.530;9.760;2022-07-09T06:49:02;101955.78;;;17.35;89.21
58927;BME280;44712;52.530;9.760;2022-07-09T06:51:29;101948.47;;;17.37;88.82
58927;BME280;44712;52.530;9.760;2022-07-09T06:53:56;101952.00;;;17.43;89.02
58927;BME280;44712;52.530;9.760;2022-07-09T06:56:22;101951.84;;;17.49;88.02
58927;BME280;44712;52.530;9.760;2022-07-09T06:58:49;101957.25;;;17.52;87.61
58927;BME280;44712;52.530;9.760;2022-07-09T07:01:16;101954.44;;;17.55;88.25
58927;BME280;44712;52.530;9.760;2022-07-09T07:03:42;101953.31;;;17.65;88.36
58927;BME280;44712;52.530;9.760;2022-07-09T07:06:09;101947.66;;;17.71;86.80
58927;BME280;44712;52.530;9.760;2022-07-09T07:08:36;101937.91;;;17.60;86.25
58927;BME280;44712;52.530;9.760;2022-07-09T07:11:03;101947.00;;;17.62;85.93
58927;BME280;44712;52.530;9.760;2022-07-09T07:13:30;101940.47;;;17.67;86.47
58927;BME280;44712;52.530;9.760;2022-07-09T07:15:57;101942.19;;;17.71;86.35
58927;BME280;44712;52.530;9.760;2022-07-09T07:18:23;101943.91;;;17.76;85.85
58927;BME280;44712;52.530;9.760;2022-07-09T07:20:50;101940.25;;;17.77;85.48
58927;BME280;44712;52.530;9.760;2022-07-09T07:23:17;101940.41;;;17.70;85.35
58927;BME280;44712;52.530;9.760;2022-07-09T07:25:44;101947.75;;;17.68;84.76
58927;BME280;44712;52.530;9.760;2022-07-09T07:28:10;101944.09;;;17.69;84.58
58927;BME280;44712;52.530;9.760;2022-07-09T07:30:37;101940.13;;;17.83;84.75
58927;BME280;44712;52.530;9.760;2022-07-09T07:33:08;101940.72;;;17.97;85.24
58927;BME280;44712;52.530;9.760;2022-07-09T07:35:35;101939.38;;;18.14;84.47
58927;BME280;44712;52.530;9.760;2022-07-09T07:38:02;101933.56;;;18.26;83.94
58927;BME280;44712;52.530;9.760;2022-07-09T07:40:29;101948.00;;;18.33;83.45
58927;BME280;44712;52.530;9.760;2022-07-09T07:42:55;101938.81;;;18.35;81.86
58927;BME280;44712;52.530;9.760;2022-07-09T07:45:22;101942.50;;;18.34;81.73
58927;BME280;44712;52.530;9.760;2022-07-09T07:47:49;101938.81;;;18.35;82.00
58927;BME280;44712;52.530;9.760;2022-07-09T07:50:15;101929.00;;;18.27;82.50
58927;BME280;44712;52.530;9.760;2022-07-09T07:52:42;101924.31;;;18.30;82.00
58927;BME280;44712;52.530;9.760;2022-07-09T07:55:13;101925.13;;;18.35;82.56
58927;BME280;44712;52.530;9.760;2022-07-09T07:57:40;101927.84;;;18.35;82.24
58927;BME280;44712;52.530;9.760;2022-07-09T08:00:07;101927.00;;;18.33;81.89
58927;BME280;44712;52.530;9.760;2022-07-09T08:02:37;101930.78;;;18.28;81.36
58927;BME280;44712;52.530;9.760;2022-07-09T08:05:04;101928.00;;;18.31;81.65
58927;BME280;44712;52.530;9.760;2022-07-09T08:07:31;101928.97;;;18.28;82.00
58927;BME280;44712;52.530;9.760;2022-07-09T08:09:58;101938.22;;;18.24;81.49
58927;BME280;44712;52.530;9.760;2022-07-09T08:12:26;101935.38;;;18.27;81.46
58927;BME280;44712;52.530;9.760;2022-07-09T08:14:53;101929.81;;;18.30;82.17
58927;BME280;44712;52.530;9.760;2022-07-09T08:17:20;101928.13;;;18.24;81.95
58927;BME280;44712;52.530;9.760;2022-07-09T08:19:47;101931.72;;;18.28;82.84
58927;BME280;44712;52.530;9.760;2022-07-09T08:22:13;101921.59;;;18.30;82.62
58927;BME280;44712;52.530;9.760;2022-07-09T08:24:40;101918.78;;;18.33;82.38
58927;BME280;44712;52.530;9.760;2022-07-09T08:27:06;101922.28;;;18.38;82.41
58927;BME280;44712;52.530;9.760;2022-07-09T08:29:33;101924.19;;;18.36;81.94
58927;BME280;44712;52.530;9.760;2022-07-09T08:32:02;101932.31;;;18.39;82.22
58927;BME280;44712;52.530;9.760;2022-07-09T08:34:29;101938.72;;;18.38;81.85
58927;BME280;44712;52.530;9.760;2022-07-09T08:36:56;101936.94;;;18.37;82.20
58927;BME280;44712;52.530;9.760;2022-07-09T08:39:22;101934.06;;;18.42;81.85
58927;BME280;44712;52.530;9.760;2022-07-09T08:41:50;101934.81;;;18.49;81.13
58927;BME280;44712;52.530;9.760;2022-07-09T08:44:19;101926.53;;;18.50;81.13
58927;BME280;44712;52.530;9.760;2022-07-09T08:46:46;101922.81;;;18.53;80.49
58927;BME280;44712;52.530;9.760;2022-07-09T08:49:15;101928.22;;;18.56;79.82
58927;BME280;44712;52.530;9.760;2022-07-09T08:51:43;101921.78;;;18.57;79.92
58927;BME280;44712;52.530;9.760;2022-07-09T08:54:10;101919.81;;;18.62;79.95
58927;BME280;44712;52.530;9.760;2022-07-09T08:56:37;101917.00;;;18.65;79.95
58927;BME280;44712;52.530;9.760;2022-07-09T08:59:03;101914.91;;;18.75;79.82
58927;BME280;44712;52.530;9.760;2022-07-09T09:01:30;101913.72;;;18.84;79.19
58927;BME280;44712;52.530;9.760;2022-07-09T09:03:57;101910.22;;;18.79;77.72
58927;BME280;44712;52.530;9.760;2022-07-09T09:06:23;101900.47;;;19.01;78.09
58927;BME280;44712;52.530;9.760;2022-07-09T09:08:54;101885.59;;;19.09;75.73
58927;BME280;44712;52.530;9.760;2022-07-09T09:11:25;101880.00;;;19.12;74.79
58927;BME280;44712;52.530;9.760;2022-07-09T09:13:54;101868.16;;;19.11;74.83
58927;BME280;44712;52.530;9.760;2022-07-09T09:16:21;101872.53;;;19.17;74.48
58927;BME280;44712;52.530;9.760;2022-07-09T09:18:51;101868.66;;;19.24;75.33
58927;BME280;44712;52.530;9.760;2022-07-09T09:21:20;101874.00;;;19.29;74.78
58927;BME280;44712;52.530;9.760;2022-07-09T09:23:58;101870.56;;;19.22;73.33
58927;BME280;44712;52.530;9.760;2022-07-09T09:26:26;101868.34;;;19.33;72.66
58927;BME280;44712;52.530;9.760;2022-07-09T09:31:27;101885.25;;;19.49;70.77
58927;BME280;44712;52.530;9.760;2022-07-09T09:34:10;101885.63;;;19.65;70.87
58927;BME280;44712;52.530;9.760;2022-07-09T09:36:37;101884.16;;;19.55;69.43
58927;BME280;44712;52.530;9.760;2022-07-09T09:39:09;101896.44;;;19.71;70.56
58927;BME280;44712;52.530;9.760;2022-07-09T09:41:35;101899.06;;;19.74;69.88
58927;BME280;44712;52.530;9.760;2022-07-09T09:44:08;101887.13;;;19.76;70.44
58927;BME280;44712;52.530;9.760;2022-07-09T09:46:38;101890.56;;;19.84;70.71
58927;BME280;44712;52.530;9.760;2022-07-09T09:49:06;101885.97;;;19.84;70.72
58927;BME280;44712;52.530;9.760;2022-07-09T09:52:02;101892.94;;;19.95;71.05
58927;BME280;44712;52.530;9.760;2022-07-09T09:54:31;101884.91;;;20.15;69.04
58927;BME280;44712;52.530;9.760;2022-07-09T09:56:59;101895.34;;;20.31;68.63
58927;BME280;44712;52.530;9.760;2022-07-09T09:59:26;101889.78;;;20.59;67.62
58927;BME280;44712;52.530;9.760;2022-07-09T10:01:52;101886.06;;;20.60;66.96
58927;BME280;44712;52.530;9.760;2022-07-09T10:04:20;101886.63;;;20.45;67.02
58927;BME280;44712;52.530;9.760;2022-07-09T10:06:48;101881.13;;;20.45;66.66
58927;BME280;44712;52.530;9.760;2022-07-09T10:09:15;101881.75;;;20.53;67.88
58927;BME280;44712;52.530;9.760;2022-07-09T10:11:47;101880.56;;;20.60;67.82
58927;BME280;44712;52.530;9.760;2022-07-09T10:16:45;101872.72;;;20.74;64.91
58927;BME280;44712;52.530;9.760;2022-07-09T10:19:23;101861.50;;;20.81;63.95
58927;BME280;44712;52.530;9.760;2022-07-09T10:21:55;101863.53;;;20.76;63.21
58927;BME280;44712;52.530;9.760;2022-07-09T10:24:27;101853.34;;;20.78;63.95
58927;BME280;44712;52.530;9.760;2022-07-09T10:27:08;101859.56;;;20.83;64.43
58927;BME280;44712;52.530;9.760;2022-07-09T10:29:53;101853.25;;;20.81;62.82
58927;BME280;44712;52.530;9.760;2022-07-09T10:32:30;101846.41;;;20.91;63.59
58927;BME280;44712;52.530;9.760;2022-07-09T10:35:04;101846.91;;;21.02;64.42
58927;BME280;44712;52.530;9.760;2022-07-09T10:37:32;101835.66;;;21.09;63.53
58927;BME280;44712;52.530;9.760;2022-07-09T10:42:37;101838.56;;;21.28;61.03
58927;BME280;44712;52.530;9.760;2022-07-09T10:47:44;101832.25;;;21.70;59.55
58927;BME280;44712;52.530;9.760;2022-07-09T10:50:13;101835.25;;;21.86;59.93
58927;BME280;44712;52.530;9.760;2022-07-09T10:52:40;101832.22;;;21.92;59.66
58927;BME280;44712;52.530;9.760;2022-07-09T10:55:08;101826.53;;;21.97;57.73
58927;BME280;44712;52.530;9.760;2022-07-09T10:57:35;101822.16;;;21.91;57.49
58927;BME280;44712;52.530;9.760;2022-07-09T11:00:03;101825.06;;;21.88;57.61
58927;BME280;44712;52.530;9.760;2022-07-09T11:02:30;101819.47;;;21.69;58.15
58927;BME280;44712;52.530;9.760;2022-07-09T11:04:57;101819.78;;;21.83;58.55
58927;BME280;44712;52.530;9.760;2022-07-09T11:07:25;101805.53;;;21.94;57.90
58927;BME280;44712;52.530;9.760;2022-07-09T11:09:52;101803.84;;;22.31;57.21
58927;BME280;44712;52.530;9.760;2022-07-09T11:12:21;101804.66;;;22.35;55.21
58927;BME280;44712;52.530;9.760;2022-07-09T11:14:51;101801.25;;;22.07;55.14
58927;BME280;44712;52.530;9.760;2022-07-09T11:17:20;101814.19;;;22.05;55.68
58927;BME280;44712;52.530;9.760;2022-07-09T11:19:47;101800.66;;;21.79;55.64
58927;BME280;44712;52.530;9.760;2022-07-09T11:22:15;101795.28;;;21.76;55.38
58927;BME280;44712;52.530;9.760;2022-07-09T11:24:41;101807.97;;;21.80;55.02
58927;BME280;44712;52.530;9.760;2022-07-09T11:27:08;101795.00;;;21.82;54.02
58927;BME280;44712;52.530;9.760;2022-07-09T11:29:36;101800.81;;;21.76;54.75
58927;BME280;44712;52.530;9.760;2022-07-09T11:32:03;101801.91;;;21.92;54.83
58927;BME280;44712;52.530;9.760;2022-07-09T11:34:31;101782.91;;;22.06;53.69
58927;BME280;44712;52.530;9.760;2022-07-09T11:36:58;101782.59;;;22.35;53.93
58927;BME280;44712;52.530;9.760;2022-07-09T11:41:57;101775.34;;;22.53;52.93
58927;BME280;44712;52.530;9.760;2022-07-09T11:47:07;101764.44;;;22.50;54.13
58927;BME280;44712;52.530;9.760;2022-07-09T11:49:39;101760.59;;;22.73;53.84
58927;BME280;44712;52.530;9.760;2022-07-09T11:52:20;101755.34;;;22.86;53.35
58927;BME280;44712;52.530;9.760;2022-07-09T11:55:04;101761.34;;;22.96;52.64
58927;BME280;44712;52.530;9.760;2022-07-09T11:57:34;101758.59;;;23.15;51.55
58927;BME280;44712;52.530;9.760;2022-07-09T12:00:04;101759.56;;;23.14;48.83
58927;BME280;44712;52.530;9.760;2022-07-09T12:02:38;101736.88;;;22.88;51.04
58927;BME280;44712;52.530;9.760;2022-07-09T12:05:06;101743.72;;;22.98;51.67
58927;BME280;44712;52.530;9.760;2022-07-09T12:07:33;101742.97;;;22.95;50.25
58927;BME280;44712;52.530;9.760;2022-07-09T12:10:12;101746.59;;;23.16;49.00
58927;BME280;44712;52.530;9.760;2022-07-09T12:12:39;101733.28;;;23.24;49.07
58927;BME280;44712;52.530;9.760;2022-07-09T12:15:06;101742.44;;;23.05;47.67
58927;BME280;44712;52.530;9.760;2022-07-09T12:17:34;101736.09;;;23.03;48.10
58927;BME280;44712;52.530;9.760;2022-07-09T12:20:03;101740.44;;;22.90;48.22
58927;BME280;44712;52.530;9.760;2022-07-09T12:22:33;101738.66;;;22.89;49.87
58927;BME280;44712;52.530;9.760;2022-07-09T12:25:00;101746.13;;;22.87;50.83
58927;BME280;44712;52.530;9.760;2022-07-09T12:27:27;101749.91;;;22.65;52.21
58927;BME280;44712;52.530;9.760;2022-07-09T12:29:53;101758.78;;;22.53;53.61
58927;BME280;44712;52.530;9.760;2022-07-09T12:32:20;101781.16;;;22.24;56.98
58927;BME280;44712;52.530;9.760;2022-07-09T12:34:47;101801.53;;;21.79;63.36
58927;BME280;44712;52.530;9.760;2022-07-09T12:37:13;101797.34;;;21.26;67.77
58927;BME280;44712;52.530;9.760;2022-07-09T12:39:40;101802.28;;;20.94;70.78
58927;BME280;44712;52.530;9.760;2022-07-09T12:42:11;101807.84;;;20.69;71.93
58927;BME280;44712;52.530;9.760;2022-07-09T12:44:38;101812.00;;;20.55;72.22
58927;BME280;44712;52.530;9.760;2022-07-09T12:47:04;101801.13;;;20.27;70.76
58927;BME280;44712;52.530;9.760;2022-07-09T12:49:31;101803.25;;;20.19;70.43
58927;BME280;44712;52.530;9.760;2022-07-09T12:51:58;101801.06;;;20.03;69.31
58927;BME280;44712;52.530;9.760;2022-07-09T12:54:24;101778.22;;;20.01;69.60
58927;BME280;44712;52.530;9.760;2022-07-09T12:56:51;101788.13;;;20.07;69.47
58927;BME280;44712;52.530;9.760;2022-07-09T12:59:35;101770.97;;;20.00;69.26
58927;BME280;44712;52.530;9.760;2022-07-09T13:02:03;101774.75;;;19.96;69.50
58927;BME280;44712;52.530;9.760;2022-07-09T13:04:30;101774.66;;;19.99;69.46
58927;BME280;44712;52.530;9.760;2022-07-09T13:06:57;101775.72;;;19.95;69.67